sensor_id;sensor_type;location;lat;lon;timestamp;P1;durP1;ratioP1;P2;durP2;ratioP2
17935;SDS011;9093;52.062;4.508;2023-03-13T00:02:28;7.13;;;1.67;;
17935;SDS011;9093;52.062;4.508;2023-03-13T00:05:08;4.55;;;1.88;;
17935;SDS011;9093;52.062;4.508;2023-03-13T00:07:49;6.00;;;2.08;;
17935;SDS011;9093;52.062;4.508;2023-03-13T00:10:29;6.68;;;2.05;;
17935;SDS011;9093;52.062;4.508;2023-03-13T00:13:09;4.60;;;1.95;;
17935;SDS011;9093;52.062;4.508;2023-03-13T00:15:57;5.63;;;1.73;;
17935;SDS011;9093;52.062;4.508;2023-03-13T00:18:43;6.28;;;2.75;;
17935;SDS011;9093;52.062;4.508;2023-03-13T00:21:26;4.18;;;2.45;;
17935;SDS011;9093;52.062;4.508;2023-03-13T00:24:09;5.18;;;1.90;;
17935;SDS011;9093;52.062;4.508;2023-03-13T00:26:51;8.63;;;2.05;;
17935;SDS011;9093;52.062;4.508;2023-03-13T00:29:32;7.75;;;1.88;;
17935;SDS011;9093;52.062;4.508;2023-03-13T00:32:13;5.88;;;1.95;;
17935;SDS011;9093;52.062;4.508;2023-03-13T00:34:53;8.15;;;1.90;;
17935;SDS011;9093;52.062;4.508;2023-03-13T00:37:33;15.85;;;3.17;;
17935;SDS011;9093;52.062;4.508;2023-03-13T00:40:14;6.30;;;2.13;;
17935;SDS011;9093;52.062;4.508;2023-03-13T00:42:54;10.13;;;1.92;;
17935;SDS011;9093;52.062;4.508;2023-03-13T00:45:35;8.07;;;2.05;;
17935;SDS011;9093;52.062;4.508;2023-03-13T00:48:15;5.70;;;1.63;;
17935;SDS011;9093;52.062;4.508;2023-03-13T00:50:56;9.98;;;1.83;;
17935;SDS011;9093;52.062;4.508;2023-03-13T00:53:36;6.63;;;2.63;;
17935;SDS011;9093;52.062;4.508;2023-03-13T00:56:18;4.90;;;1.55;;
17935;SDS011;9093;52.062;4.508;2023-03-13T00:58:59;13.48;;;2.13;;
17935;SDS011;9093;52.062;4.508;2023-03-13T01:01:40;8.15;;;2.50;;
17935;SDS011;9093;52.062;4.508;2023-03-13T01:04:21;4.63;;;2.13;;
17935;SDS011;9093;52.062;4.508;2023-03-13T01:07:04;3.53;;;2.35;;
17935;SDS011;9093;52.062;4.508;2023-03-13T01:09:44;4.53;;;2.42;;
17935;SDS011;9093;52.062;4.508;2023-03-13T01:12:25;5.80;;;2.50;;
17935;SDS011;9093;52.062;4.508;2023-03-13T01:15:05;9.68;;;3.20;;
17935;SDS011;9093;52.062;4.508;2023-03-13T01:17:46;8.02;;;2.55;;
17935;SDS011;9093;52.062;4.508;2023-03-13T01:20:27;15.30;;;3.83;;
17935;SDS011;9093;52.062;4.508;2023-03-13T01:23:08;7.22;;;3.58;;
17935;SDS011;9093;52.062;4.508;2023-03-13T01:25:49;9.23;;;3.53;;
17935;SDS011;9093;52.062;4.508;2023-03-13T01:28:29;9.07;;;3.75;;
17935;SDS011;9093;52.062;4.508;2023-03-13T01:31:13;8.38;;;3.88;;
17935;SDS011;9093;52.062;4.508;2023-03-13T01:33:58;7.82;;;3.45;;
17935;SDS011;9093;52.062;4.508;2023-03-13T01:36:39;13.98;;;3.58;;
17935;SDS011;9093;52.062;4.508;2023-03-13T01:39:20;13.85;;;4.00;;
17935;SDS011;9093;52.062;4.508;2023-03-13T01:42:01;8.18;;;4.53;;
17935;SDS011;9093;52.062;4.508;2023-03-13T01:44:53;9.45;;;4.28;;
17935;SDS011;9093;52.062;4.508;2023-03-13T01:47:35;7.97;;;4.25;;
17935;SDS011;9093;52.062;4.508;2023-03-13T01:50:16;8.30;;;5.22;;
17935;SDS011;9093;52.062;4.508;2023-03-13T01:52:56;17.48;;;5.15;;
17935;SDS011;9093;52.062;4.508;2023-03-13T01:55:36;19.08;;;5.93;;
17935;SDS011;9093;52.062;4.508;2023-03-13T01:58:17;8.63;;;4.28;;
17935;SDS011;9093;52.062;4.508;2023-03-13T02:00:57;10.70;;;5.25;;
17935;SDS011;9093;52.062;4.508;2023-03-13T02:03:39;16.77;;;6.07;;
17935;SDS011;9093;52.062;4.508;2023-03-13T02:06:20;13.40;;;5.57;;
17935;SDS011;9093;52.062;4.508;2023-03-13T02:09:02;11.05;;;4.75;;
17935;SDS011;9093;52.062;4.508;2023-03-13T02:12:20;15.95;;;4.47;;
17935;SDS011;9093;52.062;4.508;2023-03-13T02:14:55;9.63;;;4.70;;
17935;SDS011;9093;52.062;4.508;2023-03-13T02:17:38;9.63;;;4.88;;
17935;SDS011;9093;52.062;4.508;2023-03-13T02:20:20;9.48;;;4.68;;
17935;SDS011;9093;52.062;4.508;2023-03-13T02:26:03;8.30;;;4.63;;
17935;SDS011;9093;52.062;4.508;2023-03-13T02:28:44;10.88;;;5.07;;
17935;SDS011;9093;52.062;4.508;2023-03-13T02:31:24;9.23;;;4.53;;
17935;SDS011;9093;52.062;4.508;2023-03-13T02:34:06;6.55;;;4.25;;
17935;SDS011;9093;52.062;4.508;2023-03-13T02:36:46;6.85;;;4.60;;
17935;SDS011;9093;52.062;4.508;2023-03-13T02:39:28;6.88;;;4.10;;
17935;SDS011;9093;52.062;4.508;2023-03-13T02:44:52;9.55;;;3.35;;
17935;SDS011;9093;52.062;4.508;2023-03-13T02:47:33;7.47;;;3.85;;
17935;SDS011;9093;52.062;4.508;2023-03-13T02:50:13;5.68;;;3.30;;
17935;SDS011;9093;52.062;4.508;2023-03-13T02:52:56;5.35;;;3.10;;
17935;SDS011;9093;52.062;4.508;2023-03-13T02:55:40;9.32;;;4.13;;
17935;SDS011;9093;52.062;4.508;2023-03-13T02:58:22;8.57;;;3.65;;
17935;SDS011;9093;52.062;4.508;2023-03-13T03:01:04;4.95;;;3.22;;
17935;SDS011;9093;52.062;4.508;2023-03-13T03:06:27;3.22;;;2.22;;
17935;SDS011;9093;52.062;4.508;2023-03-13T03:09:08;4.57;;;2.63;;
17935;SDS011;9093;52.062;4.508;2023-03-13T03:11:48;11.13;;;2.80;;
17935;SDS011;9093;52.062;4.508;2023-03-13T03:14:28;9.07;;;3.15;;
17935;SDS011;9093;52.062;4.508;2023-03-13T03:17:09;7.30;;;2.10;;
17935;SDS011;9093;52.062;4.508;2023-03-13T03:19:49;6.45;;;2.50;;
17935;SDS011;9093;52.062;4.508;2023-03-13T03:22:29;5.07;;;2.10;;
17935;SDS011;9093;52.062;4.508;2023-03-13T03:25:10;4.07;;;2.45;;
17935;SDS011;9093;52.062;4.508;2023-03-13T03:27:50;17.17;;;2.03;;
17935;SDS011;9093;52.062;4.508;2023-03-13T03:30:30;9.10;;;2.97;;
17935;SDS011;9093;52.062;4.508;2023-03-13T03:33:11;6.15;;;2.72;;
17935;SDS011;9093;52.062;4.508;2023-03-13T03:35:51;7.47;;;1.67;;
17935;SDS011;9093;52.062;4.508;2023-03-13T03:38:32;3.45;;;2.00;;
17935;SDS011;9093;52.062;4.508;2023-03-13T03:41:12;14.10;;;2.67;;
17935;SDS011;9093;52.062;4.508;2023-03-13T03:43:53;3.47;;;2.63;;
17935;SDS011;9093;52.062;4.508;2023-03-13T03:46:33;8.63;;;2.65;;
17935;SDS011;9093;52.062;4.508;2023-03-13T03:49:13;3.42;;;2.30;;
17935;SDS011;9093;52.062;4.508;2023-03-13T03:51:54;4.35;;;2.58;;
17935;SDS011;9093;52.062;4.508;2023-03-13T03:54:34;3.95;;;2.45;;
17935;SDS011;9093;52.062;4.508;2023-03-13T03:57:15;7.72;;;3.22;;
17935;SDS011;9093;52.062;4.508;2023-03-13T03:59:57;3.70;;;2.42;;
17935;SDS011;9093;52.062;4.508;2023-03-13T04:02:37;4.88;;;2.40;;
17935;SDS011;9093;52.062;4.508;2023-03-13T04:05:18;5.88;;;2.60;;
17935;SDS011;9093;52.062;4.508;2023-03-13T04:07:59;5.13;;;2.88;;
17935;SDS011;9093;52.062;4.508;2023-03-13T04:10:39;4.18;;;2.60;;
17935;SDS011;9093;52.062;4.508;2023-03-13T04:13:19;6.93;;;3.15;;
17935;SDS011;9093;52.062;4.508;2023-03-13T04:16:05;5.68;;;2.65;;
17935;SDS011;9093;52.062;4.508;2023-03-13T04:18:47;5.45;;;2.72;;
17935;SDS011;9093;52.062;4.508;2023-03-13T04:21:27;6.93;;;2.90;;
17935;SDS011;9093;52.062;4.508;2023-03-13T04:24:07;5.07;;;2.47;;
17935;SDS011;9093;52.062;4.508;2023-03-13T04:26:48;5.35;;;3.33;;
17935;SDS011;9093;52.062;4.508;2023-03-13T04:29:28;5.50;;;3.28;;
17935;SDS011;9093;52.062;4.508;2023-03-13T04:32:08;4.40;;;2.42;;
17935;SDS011;9093;52.062;4.508;2023-03-13T04:34:49;6.78;;;2.72;;
17935;SDS011;9093;52.062;4.508;2023-03-13T04:37:30;3.63;;;2.33;;
17935;SDS011;9093;52.062;4.508;2023-03-13T04:40:12;8.40;;;3.08;;
17935;SDS011;9093;52.062;4.508;2023-03-13T04:42:53;7.50;;;2.60;;
17935;SDS011;9093;52.062;4.508;2023-03-13T04:45:33;4.65;;;2.38;;
17935;SDS011;9093;52.062;4.508;2023-03-13T04:48:14;12.68;;;3.05;;
17935;SDS011;9093;52.062;4.508;2023-03-13T04:50:54;8.07;;;2.55;;
17935;SDS011;9093;52.062;4.508;2023-03-13T04:53:34;8.20;;;3.15;;
17935;SDS011;9093;52.062;4.508;2023-03-13T04:56:25;10.98;;;2.33;;
17935;SDS011;9093;52.062;4.508;2023-03-13T04:59:06;10.05;;;2.50;;
17935;SDS011;9093;52.062;4.508;2023-03-13T05:01:46;5.57;;;1.70;;
17935;SDS011;9093;52.062;4.508;2023-03-13T05:04:27;13.48;;;2.63;;
17935;SDS011;9093;52.062;4.508;2023-03-13T05:07:07;9.23;;;2.65;;
17935;SDS011;9093;52.062;4.508;2023-03-13T05:09:47;7.35;;;2.60;;
17935;SDS011;9093;52.062;4.508;2023-03-13T05:12:28;4.75;;;3.05;;
17935;SDS011;9093;52.062;4.508;2023-03-13T05:15:08;3.85;;;2.10;;
17935;SDS011;9093;52.062;4.508;2023-03-13T05:17:49;8.10;;;1.98;;
17935;SDS011;9093;52.062;4.508;2023-03-13T05:20:29;10.23;;;2.63;;
17935;SDS011;9093;52.062;4.508;2023-03-13T05:23:09;11.75;;;2.45;;
17935;SDS011;9093;52.062;4.508;2023-03-13T05:25:50;11.88;;;2.55;;
17935;SDS011;9093;52.062;4.508;2023-03-13T05:28:30;6.05;;;2.53;;
17935;SDS011;9093;52.062;4.508;2023-03-13T05:31:11;12.73;;;2.72;;
17935;SDS011;9093;52.062;4.508;2023-03-13T05:33:51;4.88;;;1.95;;
17935;SDS011;9093;52.062;4.508;2023-03-13T05:36:32;11.63;;;2.17;;
17935;SDS011;9093;52.062;4.508;2023-03-13T05:39:12;9.43;;;2.30;;
17935;SDS011;9093;52.062;4.508;2023-03-13T05:41:52;4.15;;;1.90;;
17935;SDS011;9093;52.062;4.508;2023-03-13T05:44:33;5.45;;;3.08;;
17935;SDS011;9093;52.062;4.508;2023-03-13T05:47:16;5.03;;;2.17;;
17935;SDS011;9093;52.062;4.508;2023-03-13T05:49:57;13.85;;;2.92;;
17935;SDS011;9093;52.062;4.508;2023-03-13T05:52:37;8.38;;;2.10;;
17935;SDS011;9093;52.062;4.508;2023-03-13T05:55:19;9.38;;;1.83;;
17935;SDS011;9093;52.062;4.508;2023-03-13T05:57:59;2.70;;;1.60;;
17935;SDS011;9093;52.062;4.508;2023-03-13T06:00:40;15.98;;;2.25;;
17935;SDS011;9093;52.062;4.508;2023-03-13T06:03:22;10.80;;;2.10;;
17935;SDS011;9093;52.062;4.508;2023-03-13T06:06:02;6.47;;;1.80;;
17935;SDS011;9093;52.062;4.508;2023-03-13T06:08:43;8.43;;;1.73;;
17935;SDS011;9093;52.062;4.508;2023-03-13T06:11:24;2.85;;;1.50;;
17935;SDS011;9093;52.062;4.508;2023-03-13T06:14:04;3.50;;;1.33;;
17935;SDS011;9093;52.062;4.508;2023-03-13T06:16:44;4.38;;;1.58;;
17935;SDS011;9093;52.062;4.508;2023-03-13T06:19:25;10.73;;;2.00;;
17935;SDS011;9093;52.062;4.508;2023-03-13T06:22:05;4.15;;;1.73;;
17935;SDS011;9093;52.062;4.508;2023-03-13T06:24:46;10.90;;;2.10;;
17935;SDS011;9093;52.062;4.508;2023-03-13T06:27:28;11.23;;;2.28;;
17935;SDS011;9093;52.062;4.508;2023-03-13T06:30:09;6.45;;;1.63;;
17935;SDS011;9093;52.062;4.508;2023-03-13T06:32:49;2.38;;;1.35;;
17935;SDS011;9093;52.062;4.508;2023-03-13T06:35:30;4.05;;;1.52;;
17935;SDS011;9093;52.062;4.508;2023-03-13T06:38:10;11.45;;;2.40;;
17935;SDS011;9093;52.062;4.508;2023-03-13T06:40:51;7.75;;;2.00;;
17935;SDS011;9093;52.062;4.508;2023-03-13T06:43:31;6.90;;;2.05;;
17935;SDS011;9093;52.062;4.508;2023-03-13T06:46:16;5.07;;;1.70;;
17935;SDS011;9093;52.062;4.508;2023-03-13T06:48:59;9.55;;;2.67;;
17935;SDS011;9093;52.062;4.508;2023-03-13T06:51:43;6.03;;;1.50;;
17935;SDS011;9093;52.062;4.508;2023-03-13T06:54:23;4.25;;;1.95;;
17935;SDS011;9093;52.062;4.508;2023-03-13T06:57:04;6.15;;;2.03;;
17935;SDS011;9093;52.062;4.508;2023-03-13T06:59:44;2.47;;;1.50;;
17935;SDS011;9093;52.062;4.508;2023-03-13T07:02:24;13.30;;;2.17;;
17935;SDS011;9093;52.062;4.508;2023-03-13T07:05:05;5.97;;;1.67;;
17935;SDS011;9093;52.062;4.508;2023-03-13T07:07:46;12.40;;;1.90;;
17935;SDS011;9093;52.062;4.508;2023-03-13T07:10:27;5.88;;;2.13;;
17935;SDS011;9093;52.062;4.508;2023-03-13T07:13:08;4.38;;;1.58;;
17935;SDS011;9093;52.062;4.508;2023-03-13T07:15:48;7.18;;;1.80;;
17935;SDS011;9093;52.062;4.508;2023-03-13T07:18:29;5.72;;;1.80;;
17935;SDS011;9093;52.062;4.508;2023-03-13T07:21:10;10.95;;;1.90;;
17935;SDS011;9093;52.062;4.508;2023-03-13T07:23:51;7.25;;;1.90;;
17935;SDS011;9093;52.062;4.508;2023-03-13T07:26:31;3.15;;;1.85;;
17935;SDS011;9093;52.062;4.508;2023-03-13T07:29:11;7.32;;;2.28;;
17935;SDS011;9093;52.062;4.508;2023-03-13T07:31:52;4.57;;;1.60;;
17935;SDS011;9093;52.062;4.508;2023-03-13T07:34:32;4.53;;;1.90;;
17935;SDS011;9093;52.062;4.508;2023-03-13T07:37:13;3.50;;;1.40;;
17935;SDS011;9093;52.062;4.508;2023-03-13T07:39:55;4.17;;;1.53;;
17935;SDS011;9093;52.062;4.508;2023-03-13T07:42:35;13.27;;;2.00;;
17935;SDS011;9093;52.062;4.508;2023-03-13T07:45:19;8.75;;;1.85;;
17935;SDS011;9093;52.062;4.508;2023-03-13T07:47:59;16.42;;;2.60;;
17935;SDS011;9093;52.062;4.508;2023-03-13T07:50:39;2.42;;;1.52;;
17935;SDS011;9093;52.062;4.508;2023-03-13T07:53:20;12.48;;;2.35;;
17935;SDS011;9093;52.062;4.508;2023-03-13T07:56:01;4.65;;;1.83;;
17935;SDS011;9093;52.062;4.508;2023-03-13T07:58:44;3.53;;;1.30;;
17935;SDS011;9093;52.062;4.508;2023-03-13T08:01:26;2.60;;;1.50;;
17935;SDS011;9093;52.062;4.508;2023-03-13T08:04:07;3.22;;;1.58;;
17935;SDS011;9093;52.062;4.508;2023-03-13T08:06:51;4.05;;;1.35;;
17935;SDS011;9093;52.062;4.508;2023-03-13T08:09:33;4.07;;;1.63;;
17935;SDS011;9093;52.062;4.508;2023-03-13T08:12:13;5.93;;;1.75;;
17935;SDS011;9093;52.062;4.508;2023-03-13T08:14:54;7.03;;;1.70;;
17935;SDS011;9093;52.062;4.508;2023-03-13T08:17:34;5.43;;;1.13;;
17935;SDS011;9093;52.062;4.508;2023-03-13T08:20:14;4.80;;;1.33;;
17935;SDS011;9093;52.062;4.508;2023-03-13T08:22:55;3.15;;;1.38;;
17935;SDS011;9093;52.062;4.508;2023-03-13T08:25:36;4.68;;;1.63;;
17935;SDS011;9093;52.062;4.508;2023-03-13T08:28:16;4.50;;;1.70;;
17935;SDS011;9093;52.062;4.508;2023-03-13T08:30:56;3.10;;;1.25;;
17935;SDS011;9093;52.062;4.508;2023-03-13T08:33:37;10.00;;;1.25;;
17935;SDS011;9093;52.062;4.508;2023-03-13T08:36:22;8.50;;;1.65;;
17935;SDS011;9093;52.062;4.508;2023-03-13T08:39:11;2.00;;;1.20;;
17935;SDS011;9093;52.062;4.508;2023-03-13T08:41:53;8.95;;;1.77;;
17935;SDS011;9093;52.062;4.508;2023-03-13T08:44:34;9.07;;;2.08;;
17935;SDS011;9093;52.062;4.508;2023-03-13T08:47:14;4.28;;;1.00;;
17935;SDS011;9093;52.062;4.508;2023-03-13T08:49:54;9.70;;;2.45;;
17935;SDS011;9093;52.062;4.508;2023-03-13T08:52:35;2.75;;;1.20;;
17935;SDS011;9093;52.062;4.508;2023-03-13T08:55:15;11.98;;;0.80;;
17935;SDS011;9093;52.062;4.508;2023-03-13T08:57:55;13.68;;;2.95;;
17935;SDS011;9093;52.062;4.508;2023-03-13T09:00:36;7.45;;;1.15;;
17935;SDS011;9093;52.062;4.508;2023-03-13T09:03:16;7.53;;;1.70;;
17935;SDS011;9093;52.062;4.508;2023-03-13T09:05:57;7.78;;;1.35;;
17935;SDS011;9093;52.062;4.508;2023-03-13T09:08:38;9.18;;;1.40;;
17935;SDS011;9093;52.062;4.508;2023-03-13T09:11:20;8.07;;;1.88;;
17935;SDS011;9093;52.062;4.508;2023-03-13T09:14:00;8.80;;;1.30;;
17935;SDS011;9093;52.062;4.508;2023-03-13T09:16:41;3.55;;;1.65;;
17935;SDS011;9093;52.062;4.508;2023-03-13T09:19:21;8.23;;;1.40;;
17935;SDS011;9093;52.062;4.508;2023-03-13T09:22:02;2.42;;;0.90;;
17935;SDS011;9093;52.062;4.508;2023-03-13T09:24:42;5.45;;;1.25;;
17935;SDS011;9093;52.062;4.508;2023-03-13T09:27:23;6.55;;;1.65;;
17935;SDS011;9093;52.062;4.508;2023-03-13T09:30:04;7.28;;;1.00;;
17935;SDS011;9093;52.062;4.508;2023-03-13T09:32:45;4.00;;;0.90;;
17935;SDS011;9093;52.062;4.508;2023-03-13T09:35:26;2.55;;;0.68;;
17935;SDS011;9093;52.062;4.508;2023-03-13T09:38:06;4.90;;;1.02;;
17935;SDS011;9093;52.062;4.508;2023-03-13T09:40:48;8.52;;;1.00;;
17935;SDS011;9093;52.062;4.508;2023-03-13T09:43:44;6.03;;;1.20;;
17935;SDS011;9093;52.062;4.508;2023-03-13T09:46:34;5.13;;;0.63;;
17935;SDS011;9093;52.062;4.508;2023-03-13T09:49:26;3.55;;;1.05;;
17935;SDS011;9093;52.062;4.508;2023-03-13T09:54:58;0.90;;;0.70;;
17935;SDS011;9093;52.062;4.508;2023-03-13T09:57:48;9.63;;;0.95;;
17935;SDS011;9093;52.062;4.508;2023-03-13T10:00:34;7.07;;;1.33;;
17935;SDS011;9093;52.062;4.508;2023-03-13T10:03:19;4.15;;;0.80;;
17935;SDS011;9093;52.062;4.508;2023-03-13T10:06:20;2.65;;;1.13;;
17935;SDS011;9093;52.062;4.508;2023-03-13T10:09:02;1.52;;;0.80;;
17935;SDS011;9093;52.062;4.508;2023-03-13T10:12:45;5.70;;;0.93;;
17935;SDS011;9093;52.062;4.508;2023-03-13T10:15:27;6.45;;;0.70;;
17935;SDS011;9093;52.062;4.508;2023-03-13T10:18:13;6.03;;;0.98;;
17935;SDS011;9093;52.062;4.508;2023-03-13T10:20:57;2.65;;;0.85;;
17935;SDS011;9093;52.062;4.508;2023-03-13T10:26:43;6.45;;;0.80;;
17935;SDS011;9093;52.062;4.508;2023-03-13T10:29:24;17.55;;;1.60;;
17935;SDS011;9093;52.062;4.508;2023-03-13T10:32:07;7.82;;;1.23;;
17935;SDS011;9093;52.062;4.508;2023-03-13T10:37:39;4.82;;;1.50;;
17935;SDS011;9093;52.062;4.508;2023-03-13T10:40:23;9.60;;;1.60;;
17935;SDS011;9093;52.062;4.508;2023-03-13T10:43:11;8.05;;;1.50;;
17935;SDS011;9093;52.062;4.508;2023-03-13T10:45:54;6.65;;;0.98;;
17935;SDS011;9093;52.062;4.508;2023-03-13T10:48:35;13.10;;;1.20;;
17935;SDS011;9093;52.062;4.508;2023-03-13T10:51:20;10.68;;;1.67;;
17935;SDS011;9093;52.062;4.508;2023-03-13T10:54:12;3.63;;;1.17;;
17935;SDS011;9093;52.062;4.508;2023-03-13T10:59:48;4.35;;;1.10;;
17935;SDS011;9093;52.062;4.508;2023-03-13T11:02:32;5.95;;;1.00;;
17935;SDS011;9093;52.062;4.508;2023-03-13T11:08:23;3.70;;;0.98;;
17935;SDS011;9093;52.062;4.508;2023-03-13T11:11:14;2.58;;;0.70;;
17935;SDS011;9093;52.062;4.508;2023-03-13T11:14:07;11.30;;;1.90;;
17935;SDS011;9093;52.062;4.508;2023-03-13T11:20:00;2.88;;;1.00;;
17935;SDS011;9093;52.062;4.508;2023-03-13T11:22:52;6.57;;;1.55;;
17935;SDS011;9093;52.062;4.508;2023-03-13T11:31:50;10.93;;;1.25;;
17935;SDS011;9093;52.062;4.508;2023-03-13T11:34:36;4.78;;;1.17;;
17935;SDS011;9093;52.062;4.508;2023-03-13T11:37:22;8.43;;;1.70;;
17935;SDS011;9093;52.062;4.508;2023-03-13T11:48:50;28.97;;;2.37;;
17935;SDS011;9093;52.062;4.508;2023-03-13T11:55:21;10.55;;;1.75;;
17935;SDS011;9093;52.062;4.508;2023-03-13T12:00:55;7.00;;;1.70;;
17935;SDS011;9093;52.062;4.508;2023-03-13T12:06:41;6.00;;;1.80;;
17935;SDS011;9093;52.062;4.508;2023-03-13T12:09:27;10.32;;;1.88;;
17935;SDS011;9093;52.062;4.508;2023-03-13T12:12:18;12.10;;;1.45;;
17935;SDS011;9093;52.062;4.508;2023-03-13T12:15:15;10.27;;;1.75;;
17935;SDS011;9093;52.062;4.508;2023-03-13T12:18:05;20.95;;;1.80;;
17935;SDS011;9093;52.062;4.508;2023-03-13T12:21:05;7.35;;;1.52;;
17935;SDS011;9093;52.062;4.508;2023-03-13T12:26:52;5.70;;;1.15;;
17935;SDS011;9093;52.062;4.508;2023-03-13T12:29:39;17.27;;;2.42;;
17935;SDS011;9093;52.062;4.508;2023-03-13T12:35:28;7.00;;;2.08;;
17935;SDS011;9093;52.062;4.508;2023-03-13T12:38:16;7.47;;;2.13;;
17935;SDS011;9093;52.062;4.508;2023-03-13T12:44:27;5.57;;;1.40;;
17935;SDS011;9093;52.062;4.508;2023-03-13T12:47:18;9.98;;;2.20;;
17935;SDS011;9093;52.062;4.508;2023-03-13T12:53:40;13.48;;;1.55;;
17935;SDS011;9093;52.062;4.508;2023-03-13T12:56:44;11.02;;;2.03;;
17935;SDS011;9093;52.062;4.508;2023-03-13T12:59:35;14.43;;;2.38;;
17935;SDS011;9093;52.062;4.508;2023-03-13T13:02:21;20.35;;;1.85;;
17935;SDS011;9093;52.062;4.508;2023-03-13T13:05:03;6.88;;;2.00;;
17935;SDS011;9093;52.062;4.508;2023-03-13T13:07:51;6.82;;;1.30;;
17935;SDS011;9093;52.062;4.508;2023-03-13T13:10:33;5.70;;;1.70;;
17935;SDS011;9093;52.062;4.508;2023-03-13T13:16:14;12.63;;;1.70;;
17935;SDS011;9093;52.062;4.508;2023-03-13T13:25:26;9.38;;;1.77;;
17935;SDS011;9093;52.062;4.508;2023-03-13T13:30:54;23.15;;;2.42;;
17935;SDS011;9093;52.062;4.508;2023-03-13T13:33:35;9.90;;;1.70;;
17935;SDS011;9093;52.062;4.508;2023-03-13T13:39:00;16.45;;;2.38;;
17935;SDS011;9093;52.062;4.508;2023-03-13T13:41:41;12.25;;;1.90;;
17935;SDS011;9093;52.062;4.508;2023-03-13T13:44:25;17.83;;;1.60;;
17935;SDS011;9093;52.062;4.508;2023-03-13T13:47:17;17.10;;;2.58;;
17935;SDS011;9093;52.062;4.508;2023-03-13T13:50:15;10.55;;;1.38;;
17935;SDS011;9093;52.062;4.508;2023-03-13T14:04:47;17.17;;;2.33;;
17935;SDS011;9093;52.062;4.508;2023-03-13T14:07:36;14.88;;;2.90;;
17935;SDS011;9093;52.062;4.508;2023-03-13T14:10:30;14.68;;;3.00;;
17935;SDS011;9093;52.062;4.508;2023-03-13T14:13:16;9.60;;;2.28;;
17935;SDS011;9093;52.062;4.508;2023-03-13T14:18:51;4.97;;;1.80;;
17935;SDS011;9093;52.062;4.508;2023-03-13T14:21:32;14.32;;;2.28;;
17935;SDS011;9093;52.062;4.508;2023-03-13T14:24:14;12.50;;;2.05;;
17935;SDS011;9093;52.062;4.508;2023-03-13T14:26:55;13.67;;;1.63;;
17935;SDS011;9093;52.062;4.508;2023-03-13T14:29:36;12.48;;;2.40;;
17935;SDS011;9093;52.062;4.508;2023-03-13T14:32:16;16.65;;;2.00;;
17935;SDS011;9093;52.062;4.508;2023-03-13T14:34:56;13.85;;;1.83;;
17935;SDS011;9093;52.062;4.508;2023-03-13T14:40:26;9.50;;;1.73;;
17935;SDS011;9093;52.062;4.508;2023-03-13T14:43:19;14.60;;;2.67;;
17935;SDS011;9093;52.062;4.508;2023-03-13T14:46:14;7.97;;;1.70;;
17935;SDS011;9093;52.062;4.508;2023-03-13T14:49:06;10.45;;;1.60;;
17935;SDS011;9093;52.062;4.508;2023-03-13T14:51:58;8.35;;;2.55;;
17935;SDS011;9093;52.062;4.508;2023-03-13T14:54:51;8.73;;;1.70;;
17935;SDS011;9093;52.062;4.508;2023-03-13T14:57:34;14.18;;;2.22;;
17935;SDS011;9093;52.062;4.508;2023-03-13T15:00:34;12.68;;;1.90;;
17935;SDS011;9093;52.062;4.508;2023-03-13T15:06:02;8.35;;;2.70;;
17935;SDS011;9093;52.062;4.508;2023-03-13T15:09:28;21.98;;;2.30;;
17935;SDS011;9093;52.062;4.508;2023-03-13T15:14:39;10.02;;;1.70;;
17935;SDS011;9093;52.062;4.508;2023-03-13T15:17:22;12.57;;;1.92;;
17935;SDS011;9093;52.062;4.508;2023-03-13T15:20:04;9.95;;;1.30;;
17935;SDS011;9093;52.062;4.508;2023-03-13T15:22:48;10.32;;;1.73;;
17935;SDS011;9093;52.062;4.508;2023-03-13T15:25:28;15.75;;;2.13;;
17935;SDS011;9093;52.062;4.508;2023-03-13T15:28:13;10.75;;;2.05;;
17935;SDS011;9093;52.062;4.508;2023-03-13T15:30:54;7.28;;;1.50;;
17935;SDS011;9093;52.062;4.508;2023-03-13T15:33:34;7.00;;;1.50;;
17935;SDS011;9093;52.062;4.508;2023-03-13T15:36:15;13.63;;;1.83;;
17935;SDS011;9093;52.062;4.508;2023-03-13T15:38:55;9.65;;;3.17;;
17935;SDS011;9093;52.062;4.508;2023-03-13T15:41:36;10.77;;;2.72;;
17935;SDS011;9093;52.062;4.508;2023-03-13T15:44:16;15.23;;;2.47;;
17935;SDS011;9093;52.062;4.508;2023-03-13T15:46:56;12.63;;;1.85;;
17935;SDS011;9093;52.062;4.508;2023-03-13T15:49:37;9.65;;;2.28;;
17935;SDS011;9093;52.062;4.508;2023-03-13T15:52:18;5.63;;;1.55;;
17935;SDS011;9093;52.062;4.508;2023-03-13T15:55:01;9.95;;;1.85;;
17935;SDS011;9093;52.062;4.508;2023-03-13T15:57:43;14.70;;;2.15;;
17935;SDS011;9093;52.062;4.508;2023-03-13T16:00:26;11.95;;;2.10;;
17935;SDS011;9093;52.062;4.508;2023-03-13T16:03:13;22.48;;;2.58;;
17935;SDS011;9093;52.062;4.508;2023-03-13T16:05:55;9.20;;;1.92;;
17935;SDS011;9093;52.062;4.508;2023-03-13T16:08:36;13.45;;;2.33;;
17935;SDS011;9093;52.062;4.508;2023-03-13T16:11:16;17.92;;;1.90;;
17935;SDS011;9093;52.062;4.508;2023-03-13T16:13:57;7.45;;;1.63;;
17935;SDS011;9093;52.062;4.508;2023-03-13T16:16:37;9.95;;;1.88;;
17935;SDS011;9093;52.062;4.508;2023-03-13T16:19:18;10.95;;;1.88;;
17935;SDS011;9093;52.062;4.508;2023-03-13T16:21:58;21.35;;;2.42;;
17935;SDS011;9093;52.062;4.508;2023-03-13T16:24:39;17.95;;;2.03;;
17935;SDS011;9093;52.062;4.508;2023-03-13T16:27:20;9.27;;;2.30;;
17935;SDS011;9093;52.062;4.508;2023-03-13T16:30:00;11.07;;;2.58;;
17935;SDS011;9093;52.062;4.508;2023-03-13T16:32:43;11.55;;;2.35;;
17935;SDS011;9093;52.062;4.508;2023-03-13T16:35:24;10.77;;;2.15;;
17935;SDS011;9093;52.062;4.508;2023-03-13T16:38:08;14.30;;;2.20;;
17935;SDS011;9093;52.062;4.508;2023-03-13T16:40:50;15.98;;;2.55;;
17935;SDS011;9093;52.062;4.508;2023-03-13T16:43:30;8.32;;;1.55;;
17935;SDS011;9093;52.062;4.508;2023-03-13T16:46:11;13.85;;;2.22;;
17935;SDS011;9093;52.062;4.508;2023-03-13T16:48:53;9.90;;;1.75;;
17935;SDS011;9093;52.062;4.508;2023-03-13T16:51:36;20.83;;;2.42;;
17935;SDS011;9093;52.062;4.508;2023-03-13T16:54:16;10.95;;;2.08;;
17935;SDS011;9093;52.062;4.508;2023-03-13T16:56:56;12.32;;;2.28;;
17935;SDS011;9093;52.062;4.508;2023-03-13T16:59:37;7.00;;;1.45;;
17935;SDS011;9093;52.062;4.508;2023-03-13T17:02:18;14.02;;;1.77;;
17935;SDS011;9093;52.062;4.508;2023-03-13T17:04:59;15.63;;;2.13;;
17935;SDS011;9093;52.062;4.508;2023-03-13T17:07:39;21.35;;;2.65;;
17935;SDS011;9093;52.062;4.508;2023-03-13T17:10:28;15.55;;;2.28;;
17935;SDS011;9093;52.062;4.508;2023-03-13T17:13:10;15.48;;;2.08;;
17935;SDS011;9093;52.062;4.508;2023-03-13T17:15:50;11.88;;;2.75;;
17935;SDS011;9093;52.062;4.508;2023-03-13T17:18:31;12.63;;;2.47;;
17935;SDS011;9093;52.062;4.508;2023-03-13T17:21:12;14.73;;;2.50;;
17935;SDS011;9093;52.062;4.508;2023-03-13T17:23:56;10.75;;;1.75;;
17935;SDS011;9093;52.062;4.508;2023-03-13T17:26:39;20.37;;;3.50;;
17935;SDS011;9093;52.062;4.508;2023-03-13T17:29:19;17.15;;;1.95;;
17935;SDS011;9093;52.062;4.508;2023-03-13T17:32:00;10.95;;;2.28;;
17935;SDS011;9093;52.062;4.508;2023-03-13T17:34:41;7.20;;;1.20;;
17935;SDS011;9093;52.062;4.508;2023-03-13T17:37:21;5.13;;;1.05;;
17935;SDS011;9093;52.062;4.508;2023-03-13T17:40:04;16.88;;;3.47;;
17935;SDS011;9093;52.062;4.508;2023-03-13T17:42:53;8.63;;;1.63;;
17935;SDS011;9093;52.062;4.508;2023-03-13T17:45:35;10.70;;;2.13;;
17935;SDS011;9093;52.062;4.508;2023-03-13T17:48:15;15.38;;;2.30;;
17935;SDS011;9093;52.062;4.508;2023-03-13T17:50:56;10.15;;;1.85;;
17935;SDS011;9093;52.062;4.508;2023-03-13T17:53:36;7.88;;;2.03;;
17935;SDS011;9093;52.062;4.508;2023-03-13T17:56:20;12.35;;;1.80;;
17935;SDS011;9093;52.062;4.508;2023-03-13T17:59:02;15.38;;;2.35;;
17935;SDS011;9093;52.062;4.508;2023-03-13T18:01:43;15.43;;;1.90;;
17935;SDS011;9093;52.062;4.508;2023-03-13T18:04:24;18.50;;;2.58;;
17935;SDS011;9093;52.062;4.508;2023-03-13T18:07:26;9.90;;;1.83;;
17935;SDS011;9093;52.062;4.508;2023-03-13T18:10:10;18.73;;;3.00;;
17935;SDS011;9093;52.062;4.508;2023-03-13T18:13:00;10.63;;;1.90;;